Flight Track Log - Related Links

Times and Time Zones

All times are in EDT time to prevent confusion due to time zone crossing. See the EJA829P flight status page for this flight to view local times or setup timezone preferences in your user account.

Time Position Orientation Groundspeed Altitude Reporting Facility
EDT Latitude Longitude Course Direction KTS MPH feet Rate Location/Type
Fri 01:46:11 PM 45.4272 -84.9917 252° West 190 219 2,800  Level Minneapolis Center
Fri 01:47:13 PM 45.4025 -85.0917 251° West 222 255 6,200 3,532 Climbing Minneapolis Center
Fri 01:48:15 PM 45.3794 -85.1842 250° West 235 270 10,100 3,088 Climbing Minneapolis Center
Fri 01:49:29 PM 45.3556 -85.2767 250° West 243 280 13,200 2,912 Climbing Minneapolis Center
Fri 01:50:31 PM 45.3233 -85.3925 248° West 259 298 16,700 3,145 Climbing Minneapolis Center
Fri 01:51:00 PM 45.2400 -85.6211 252° West  Level FlightAware Approximate
Fri 01:51:33 PM 45.2983 -85.4931 251° West 269 310 19,700  Level Minneapolis Center
Fri 01:52:35 PM 45.2667 -85.6139 250° West 273 314 22,200 2,160 Climbing Minneapolis Center
Fri 01:53:38 PM 45.2383 -85.7231 250° West 291 335 24,200 1,776 Climbing Minneapolis Center
Fri 01:54:40 PM 45.2094 -85.8322 249° West 295 339 25,900 1,645 Climbing Minneapolis Center
Fri 01:55:42 PM 45.1806 -85.9431 250° West 301 346 27,600 1,645 Climbing Minneapolis Center
Fri 01:56:44 PM 45.1525 -86.0472 249° West 303 349 29,300 1,694 Climbing Minneapolis Center
Fri 01:57:46 PM 45.1164 -86.1811 249° West 303 349 31,100 1,597 Climbing Minneapolis Center
Fri 01:58:48 PM 45.0864 -86.2931 249° West 305 351 32,600 1,452 Climbing Minneapolis Center
Fri 01:59:50 PM 45.0550 -86.4075 249° West 310 357 34,100 1,403 Climbing Minneapolis Center
Fri 02:00:52 PM 45.0253 -86.5219 250° West 311 358 35,500 1,161 Climbing Minneapolis Center
Fri 02:01:54 PM 44.9944 -86.6356 249° West 311 358 36,500 1,016 Climbing Minneapolis Center
Fri 02:02:56 PM 44.9550 -86.7794 249° West 320 368 37,600 726 Climbing Minneapolis Center
Fri 02:03:58 PM 44.9222 -86.8978 249° West 325 374 38,000 176 Climbing Minneapolis Center
Fri 02:05:12 PM 44.8869 -87.0256 249° West 342 394 38,000  Level Minneapolis Center
Fri 02:06:15 PM 44.8433 -87.1836 249° West 358 412 38,000  Level Minneapolis Center
Fri 02:07:17 PM 44.8058 -87.3153 248° West 362 417 38,000  Level Minneapolis Center
Fri 02:08:19 PM 44.7689 -87.4469 248° West 364 419 38,000  Level Minneapolis Center
Fri 02:09:21 PM 44.7239 -87.6053 248° West 365 420 38,000  Level Minneapolis Center
Fri 02:10:23 PM 44.6864 -87.7383 248° West 367 422 38,000  Level Minneapolis Center
Fri 02:11:25 PM 44.6489 -87.8714 248° West 368 423 38,000  Level Minneapolis Center
Fri 02:12:27 PM 44.6100 -88.0003 247° West 365 420 38,000  Level Minneapolis Center
Fri 02:13:30 PM 44.5656 -88.1561 248° West 368 423 38,000  Level Minneapolis Center
Fri 02:14:32 PM 44.5053 -88.2742 234° Southwest 372 428 38,000  Level Minneapolis Center
Fri 02:15:59 PM 44.4017 -88.4392 229° Southwest 376 433 38,000  Level Minneapolis Center
Fri 02:17:01 PM 44.3328 -88.5489 229° Southwest 377 434 38,000  Level Minneapolis Center
Fri 02:18:03 PM 44.2636 -88.6594 229° Southwest 378 435 38,000  Level Minneapolis Center
Fri 02:19:05 PM 44.1939 -88.7714 229° Southwest 383 441 38,000  Level Minneapolis Center
Fri 02:20:07 PM 44.1239 -88.8811 228° Southwest 380 437 38,000  Level Minneapolis Center
Fri 02:21:09 PM 44.0419 -89.0078 228° Southwest 380 437 38,000  Level Minneapolis Center
Fri 02:22:11 PM 43.9719 -89.1181 229° Southwest 381 438 38,000  Level Minneapolis Center
Fri 02:23:13 PM 43.9019 -89.2278 228° Southwest 382 440 38,000  Level Minneapolis Center
Fri 02:24:15 PM 43.8297 -89.3364 227° Southwest 383 441 38,000  Level Minneapolis Center
Fri 02:25:17 PM 43.7581 -89.4461 228° Southwest 385 443 38,000  Level Minneapolis Center
Fri 02:26:19 PM 43.6761 -89.5747 229° Southwest 384 442 38,000  Level Minneapolis Center
Fri 02:27:21 PM 43.6022 -89.6853 227° Southwest 389 448 38,000  Level Minneapolis Center
Fri 02:28:23 PM 43.5353 -89.8008 231° Southwest 388 447 38,000  Level Minneapolis Center
Fri 02:29:25 PM 43.4897 -89.9328 245° Southwest 383 441 38,000  Level Minneapolis Center
Fri 02:30:28 PM 43.4411 -90.0636 243° Southwest 385 443 38,000  Level Minneapolis Center
Fri 02:31:30 PM 43.3847 -90.2156 243° Southwest 385 443 38,000  Level Minneapolis Center
Fri 02:32:32 PM 43.3444 -90.3292 244° Southwest 382 440 38,000  Level Minneapolis Center
Fri 02:33:34 PM 43.2961 -90.4597 243° Southwest 385 443 38,000  Level Minneapolis Center
Fri 02:34:36 PM 43.2386 -90.6144 243° Southwest 383 441 38,000  Level Minneapolis Center
Fri 02:35:38 PM 43.1903 -90.7450 243° Southwest 387 445 38,000  Level Minneapolis Center
Fri 02:36:40 PM 43.1411 -90.8753 243° Southwest 388 447 38,000  Level Minneapolis Center
Fri 02:37:42 PM 43.0925 -91.0047 243° Southwest 388 447 38,000  Level Minneapolis Center
Fri 02:38:16 PM 43.0633 -91.0844 243° Southwest 390 449 38,000  Level Chicago Center
Fri 02:39:18 PM 43.0147 -91.2136 243° Southwest 388 447 38,000  Level Chicago Center
Fri 02:40:20 PM 42.9567 -91.3700 243° Southwest 389 448 38,000  Level Chicago Center
Fri 02:41:22 PM 42.9075 -91.4997 243° Southwest 391 450 38,000  Level Chicago Center
Fri 02:42:24 PM 42.8503 -91.6400 241° Southwest 397 457 38,000  Level Chicago Center
Fri 02:43:26 PM 42.7989 -91.7853 244° Southwest 409 471 38,000  Level Chicago Center
Fri 02:44:28 PM 42.7475 -91.9100 241° Southwest 394 453 38,000  Level Chicago Center
Fri 02:45:30 PM 42.6967 -92.0394 242° Southwest 393 452 38,000 -532 Level Chicago Center
Fri 02:46:32 PM 42.6461 -92.1678 242° Southwest 390 449 36,900 -1,248 Descending Chicago Center
Fri 02:47:35 PM 42.5878 -92.3169 242° Southwest 379 436 35,400 -1,296 Descending Chicago Center
Fri 02:48:37 PM 42.5264 -92.4383 236° Southwest 399 459 34,200 -677 Descending Chicago Center
Fri 02:49:39 PM 42.4442 -92.5397 222° Southwest 405 466 34,000 -194 Descending Chicago Center
Fri 02:50:41 PM 42.3636 -92.6414 223° Southwest 400 460 33,800 -968 Descending Chicago Center
Fri 02:51:43 PM 42.2836 -92.7414 223° Southwest 397 457 32,000 -2,323 Descending Chicago Center
Fri 02:52:45 PM 42.1867 -92.8622 223° Southwest 401 461 29,000 -2,806 Descending Chicago Center
Fri 02:53:47 PM 42.1031 -92.9653 222° Southwest 411 473 26,200 -2,806 Descending Chicago Center
Fri 02:54:49 PM 42.0217 -93.0667 223° Southwest 406 467 23,200 -2,806 Descending Chicago Center
Fri 02:55:51 PM 41.9425 -93.1639 222° Southwest 392 451 20,400 -3,048 Descending Chicago Center
Fri 02:56:53 PM 41.8719 -93.2536 223° Southwest 362 417 16,900 -3,677 Descending Chicago Center
Fri 02:57:55 PM 41.7939 -93.3461 221° Southwest 322 371 12,800 -3,456 Descending Chicago Center
Fri 02:58:58 PM 41.7328 -93.4206 222° Southwest 305 351 9,700 -2,736 Descending Chicago Center
Fri 03:00:00 PM 41.6806 -93.4842 222° Southwest 282 325 7,100 -2,081 Descending Chicago Center
Fri 03:01:02 PM 41.6164 -93.5458 216° Southwest 262 302 5,400 -2,318 Descending Chicago Center
Fri 03:02:12 PM 41.5669 -93.6003 219° Southwest 199 229 2,000 -1,646 Descending Minneapolis Center
Fri 03:03:46 PM 41.5364 -93.6553 233° Southwest 119 137 900 -702 Descending Minneapolis Center
Fri 03:05:00 PM 41.5333 -93.6500 236° Southwest  Level FlightAware Approximate

Login

Don't have an account? Register now (free) for customized features, flight alerts, and more!